sensor_id;sensor_type;location;lat;lon;timestamp;P1;durP1;ratioP1;P2;durP2;ratioP2
37701;SDS011;23548;51.196;6.838;2023-03-01T00:01:49;20.60;;;11.07;;
37701;SDS011;23548;51.196;6.838;2023-03-01T00:04:15;17.10;;;10.25;;
37701;SDS011;23548;51.196;6.838;2023-03-01T00:06:42;15.40;;;10.07;;
37701;SDS011;23548;51.196;6.838;2023-03-01T00:09:11;16.33;;;10.05;;
37701;SDS011;23548;51.196;6.838;2023-03-01T00:11:38;16.27;;;9.88;;
37701;SDS011;23548;51.196;6.838;2023-03-01T00:14:04;15.10;;;10.05;;
37701;SDS011;23548;51.196;6.838;2023-03-01T00:16:41;15.60;;;9.68;;
37701;SDS011;23548;51.196;6.838;2023-03-01T00:19:18;14.73;;;10.30;;
37701;SDS011;23548;51.196;6.838;2023-03-01T00:21:45;17.33;;;10.82;;
37701;SDS011;23548;51.196;6.838;2023-03-01T00:24:12;16.98;;;10.00;;
37701;SDS011;23548;51.196;6.838;2023-03-01T00:26:38;17.50;;;10.88;;
37701;SDS011;23548;51.196;6.838;2023-03-01T00:29:04;16.88;;;10.70;;
37701;SDS011;23548;51.196;6.838;2023-03-01T00:31:32;19.90;;;10.70;;
37701;SDS011;23548;51.196;6.838;2023-03-01T00:33:59;16.35;;;10.40;;
37701;SDS011;23548;51.196;6.838;2023-03-01T00:36:28;16.75;;;10.90;;
37701;SDS011;23548;51.196;6.838;2023-03-01T00:38:57;16.00;;;10.45;;
37701;SDS011;23548;51.196;6.838;2023-03-01T00:41:23;17.77;;;10.55;;
37701;SDS011;23548;51.196;6.838;2023-03-01T00:43:51;19.30;;;11.35;;
37701;SDS011;23548;51.196;6.838;2023-03-01T00:46:24;17.05;;;10.80;;
37701;SDS011;23548;51.196;6.838;2023-03-01T00:48:51;17.25;;;11.25;;
37701;SDS011;23548;51.196;6.838;2023-03-01T00:51:19;20.17;;;11.95;;
37701;SDS011;23548;51.196;6.838;2023-03-01T00:53:50;17.23;;;11.95;;
37701;SDS011;23548;51.196;6.838;2023-03-01T00:56:18;18.33;;;11.63;;
37701;SDS011;23548;51.196;6.838;2023-03-01T00:58:44;18.42;;;11.45;;
37701;SDS011;23548;51.196;6.838;2023-03-01T01:01:20;15.45;;;10.70;;
37701;SDS011;23548;51.196;6.838;2023-03-01T01:03:49;16.45;;;11.10;;
37701;SDS011;23548;51.196;6.838;2023-03-01T01:06:19;22.20;;;12.75;;
37701;SDS011;23548;51.196;6.838;2023-03-01T01:08:47;20.75;;;13.18;;
37701;SDS011;23548;51.196;6.838;2023-03-01T01:11:14;21.55;;;12.63;;
37701;SDS011;23548;51.196;6.838;2023-03-01T01:13:40;21.17;;;12.27;;
37701;SDS011;23548;51.196;6.838;2023-03-01T01:16:07;21.45;;;12.50;;
37701;SDS011;23548;51.196;6.838;2023-03-01T01:18:33;19.48;;;12.30;;
37701;SDS011;23548;51.196;6.838;2023-03-01T01:21:06;23.25;;;12.60;;
37701;SDS011;23548;51.196;6.838;2023-03-01T01:23:34;25.90;;;13.40;;
37701;SDS011;23548;51.196;6.838;2023-03-01T01:26:04;21.10;;;12.05;;
37701;SDS011;23548;51.196;6.838;2023-03-01T01:28:32;19.88;;;12.13;;
37701;SDS011;23548;51.196;6.838;2023-03-01T01:30:58;23.15;;;12.85;;
37701;SDS011;23548;51.196;6.838;2023-03-01T01:33:24;21.75;;;12.35;;
37701;SDS011;23548;51.196;6.838;2023-03-01T01:35:50;21.95;;;11.45;;
37701;SDS011;23548;51.196;6.838;2023-03-01T01:38:16;24.15;;;12.43;;
37701;SDS011;23548;51.196;6.838;2023-03-01T01:40:43;22.23;;;12.30;;
37701;SDS011;23548;51.196;6.838;2023-03-01T01:43:14;21.83;;;12.18;;
37701;SDS011;23548;51.196;6.838;2023-03-01T01:45:54;18.67;;;11.48;;
37701;SDS011;23548;51.196;6.838;2023-03-01T01:48:46;18.80;;;11.57;;
37701;SDS011;23548;51.196;6.838;2023-03-01T01:51:23;22.08;;;11.80;;
37701;SDS011;23548;51.196;6.838;2023-03-01T01:53:53;20.85;;;11.55;;
37701;SDS011;23548;51.196;6.838;2023-03-01T01:56:24;19.33;;;11.48;;
37701;SDS011;23548;51.196;6.838;2023-03-01T01:58:51;21.73;;;11.80;;
37701;SDS011;23548;51.196;6.838;2023-03-01T02:01:19;19.92;;;12.02;;
37701;SDS011;23548;51.196;6.838;2023-03-01T02:03:45;18.55;;;12.23;;
37701;SDS011;23548;51.196;6.838;2023-03-01T02:06:15;22.63;;;12.48;;
37701;SDS011;23548;51.196;6.838;2023-03-01T02:09:08;17.27;;;11.73;;
37701;SDS011;23548;51.196;6.838;2023-03-01T02:11:38;17.98;;;11.43;;
37701;SDS011;23548;51.196;6.838;2023-03-01T02:14:04;19.77;;;11.93;;
37701;SDS011;23548;51.196;6.838;2023-03-01T02:16:31;19.55;;;11.95;;
37701;SDS011;23548;51.196;6.838;2023-03-01T02:18:57;21.38;;;12.45;;
37701;SDS011;23548;51.196;6.838;2023-03-01T02:21:34;21.92;;;12.45;;
37701;SDS011;23548;51.196;6.838;2023-03-01T02:26:48;23.02;;;12.95;;
37701;SDS011;23548;51.196;6.838;2023-03-01T02:29:17;20.27;;;11.88;;
37701;SDS011;23548;51.196;6.838;2023-03-01T02:31:43;20.02;;;12.40;;
37701;SDS011;23548;51.196;6.838;2023-03-01T02:34:13;19.00;;;11.95;;
37701;SDS011;23548;51.196;6.838;2023-03-01T02:36:49;22.80;;;12.43;;
37701;SDS011;23548;51.196;6.838;2023-03-01T02:42:30;20.63;;;11.68;;
37701;SDS011;23548;51.196;6.838;2023-03-01T02:45:00;21.52;;;12.32;;
37701;SDS011;23548;51.196;6.838;2023-03-01T02:47:26;19.83;;;11.60;;
37701;SDS011;23548;51.196;6.838;2023-03-01T02:49:52;21.00;;;12.15;;
37701;SDS011;23548;51.196;6.838;2023-03-01T02:55:03;18.00;;;11.75;;
37701;SDS011;23548;51.196;6.838;2023-03-01T02:57:36;20.02;;;11.82;;
37701;SDS011;23548;51.196;6.838;2023-03-01T03:00:11;18.90;;;11.82;;
37701;SDS011;23548;51.196;6.838;2023-03-01T03:02:47;20.58;;;11.80;;
37701;SDS011;23548;51.196;6.838;2023-03-01T03:05:25;19.55;;;12.00;;
37701;SDS011;23548;51.196;6.838;2023-03-01T03:07:52;21.73;;;13.18;;
37701;SDS011;23548;51.196;6.838;2023-03-01T03:10:29;20.35;;;11.95;;
37701;SDS011;23548;51.196;6.838;2023-03-01T03:12:58;21.98;;;12.25;;
37701;SDS011;23548;51.196;6.838;2023-03-01T03:15:32;21.58;;;12.70;;
37701;SDS011;23548;51.196;6.838;2023-03-01T03:18:01;22.00;;;12.40;;
37701;SDS011;23548;51.196;6.838;2023-03-01T03:20:29;21.20;;;12.50;;
37701;SDS011;23548;51.196;6.838;2023-03-01T03:22:57;17.95;;;12.00;;
37701;SDS011;23548;51.196;6.838;2023-03-01T03:25:24;21.25;;;12.65;;
37701;SDS011;23548;51.196;6.838;2023-03-01T03:27:52;19.60;;;12.45;;
37701;SDS011;23548;51.196;6.838;2023-03-01T03:30:29;23.35;;;12.65;;
37701;SDS011;23548;51.196;6.838;2023-03-01T03:32:57;21.02;;;12.38;;
37701;SDS011;23548;51.196;6.838;2023-03-01T03:35:25;22.63;;;12.63;;
37701;SDS011;23548;51.196;6.838;2023-03-01T03:38:01;22.38;;;12.32;;
37701;SDS011;23548;51.196;6.838;2023-03-01T03:40:41;18.95;;;12.07;;
37701;SDS011;23548;51.196;6.838;2023-03-01T03:43:10;19.50;;;11.73;;
37701;SDS011;23548;51.196;6.838;2023-03-01T03:45:37;22.85;;;12.38;;
37701;SDS011;23548;51.196;6.838;2023-03-01T03:48:04;21.92;;;12.60;;
37701;SDS011;23548;51.196;6.838;2023-03-01T03:50:30;20.75;;;12.48;;
37701;SDS011;23548;51.196;6.838;2023-03-01T03:52:56;21.15;;;11.80;;
37701;SDS011;23548;51.196;6.838;2023-03-01T03:55:23;20.63;;;12.65;;
37701;SDS011;23548;51.196;6.838;2023-03-01T03:57:53;20.80;;;12.25;;
37701;SDS011;23548;51.196;6.838;2023-03-01T04:00:19;20.27;;;12.25;;
37701;SDS011;23548;51.196;6.838;2023-03-01T04:02:46;21.60;;;12.88;;
37701;SDS011;23548;51.196;6.838;2023-03-01T04:05:14;22.45;;;12.85;;
37701;SDS011;23548;51.196;6.838;2023-03-01T04:07:41;22.77;;;12.85;;
37701;SDS011;23548;51.196;6.838;2023-03-01T04:10:09;21.20;;;12.88;;
37701;SDS011;23548;51.196;6.838;2023-03-01T04:12:39;21.25;;;13.13;;
37701;SDS011;23548;51.196;6.838;2023-03-01T04:15:06;25.30;;;13.10;;
37701;SDS011;23548;51.196;6.838;2023-03-01T04:17:42;23.15;;;13.02;;
37701;SDS011;23548;51.196;6.838;2023-03-01T04:20:14;23.17;;;13.70;;
37701;SDS011;23548;51.196;6.838;2023-03-01T04:22:49;25.15;;;14.00;;
37701;SDS011;23548;51.196;6.838;2023-03-01T04:25:40;20.77;;;12.68;;
37701;SDS011;23548;51.196;6.838;2023-03-01T04:28:08;24.90;;;13.75;;
37701;SDS011;23548;51.196;6.838;2023-03-01T04:30:35;23.58;;;13.52;;
37701;SDS011;23548;51.196;6.838;2023-03-01T04:33:03;24.83;;;13.80;;
37701;SDS011;23548;51.196;6.838;2023-03-01T04:35:31;23.05;;;13.95;;
37701;SDS011;23548;51.196;6.838;2023-03-01T04:37:57;27.23;;;14.43;;
37701;SDS011;23548;51.196;6.838;2023-03-01T04:40:24;24.67;;;14.63;;
37701;SDS011;23548;51.196;6.838;2023-03-01T04:42:50;27.23;;;15.02;;
37701;SDS011;23548;51.196;6.838;2023-03-01T04:45:16;25.00;;;13.15;;
37701;SDS011;23548;51.196;6.838;2023-03-01T04:47:42;22.65;;;13.48;;
37701;SDS011;23548;51.196;6.838;2023-03-01T04:50:13;22.75;;;13.13;;
37701;SDS011;23548;51.196;6.838;2023-03-01T04:52:41;23.40;;;13.10;;
37701;SDS011;23548;51.196;6.838;2023-03-01T04:55:07;21.75;;;13.52;;
37701;SDS011;23548;51.196;6.838;2023-03-01T04:57:33;23.77;;;13.55;;
37701;SDS011;23548;51.196;6.838;2023-03-01T04:59:59;23.80;;;14.30;;
37701;SDS011;23548;51.196;6.838;2023-03-01T05:02:25;25.25;;;14.13;;
37701;SDS011;23548;51.196;6.838;2023-03-01T05:04:51;25.13;;;13.75;;
37701;SDS011;23548;51.196;6.838;2023-03-01T05:07:17;24.13;;;13.57;;
37701;SDS011;23548;51.196;6.838;2023-03-01T05:09:47;25.90;;;14.43;;
37701;SDS011;23548;51.196;6.838;2023-03-01T05:12:13;23.38;;;13.57;;
37701;SDS011;23548;51.196;6.838;2023-03-01T05:14:40;22.73;;;13.10;;
37701;SDS011;23548;51.196;6.838;2023-03-01T05:17:06;22.25;;;13.05;;
37701;SDS011;23548;51.196;6.838;2023-03-01T05:19:32;23.73;;;12.95;;
37701;SDS011;23548;51.196;6.838;2023-03-01T05:21:59;25.20;;;13.70;;
37701;SDS011;23548;51.196;6.838;2023-03-01T05:24:29;24.88;;;13.73;;
37701;SDS011;23548;51.196;6.838;2023-03-01T05:26:56;28.45;;;13.73;;
37701;SDS011;23548;51.196;6.838;2023-03-01T05:29:23;25.73;;;13.70;;
37701;SDS011;23548;51.196;6.838;2023-03-01T05:31:59;25.23;;;13.18;;
37701;SDS011;23548;51.196;6.838;2023-03-01T05:34:27;21.25;;;12.93;;
37701;SDS011;23548;51.196;6.838;2023-03-01T05:36:55;25.35;;;14.25;;
37701;SDS011;23548;51.196;6.838;2023-03-01T05:39:22;24.80;;;14.07;;
37701;SDS011;23548;51.196;6.838;2023-03-01T05:41:53;27.40;;;15.30;;
37701;SDS011;23548;51.196;6.838;2023-03-01T05:44:24;28.40;;;14.18;;
37701;SDS011;23548;51.196;6.838;2023-03-01T05:46:51;26.80;;;14.52;;
37701;SDS011;23548;51.196;6.838;2023-03-01T05:49:17;25.60;;;13.98;;
37701;SDS011;23548;51.196;6.838;2023-03-01T05:51:43;23.90;;;14.05;;
37701;SDS011;23548;51.196;6.838;2023-03-01T05:54:14;27.10;;;14.25;;
37701;SDS011;23548;51.196;6.838;2023-03-01T05:56:40;30.40;;;14.30;;
37701;SDS011;23548;51.196;6.838;2023-03-01T05:59:06;28.38;;;14.85;;
37701;SDS011;23548;51.196;6.838;2023-03-01T06:01:32;30.60;;;14.65;;
37701;SDS011;23548;51.196;6.838;2023-03-01T06:03:59;26.23;;;14.43;;
37701;SDS011;23548;51.196;6.838;2023-03-01T06:06:25;28.67;;;14.18;;
37701;SDS011;23548;51.196;6.838;2023-03-01T06:08:52;26.40;;;14.05;;
37701;SDS011;23548;51.196;6.838;2023-03-01T06:11:18;25.35;;;14.63;;
37701;SDS011;23548;51.196;6.838;2023-03-01T06:13:45;30.35;;;15.00;;
37701;SDS011;23548;51.196;6.838;2023-03-01T06:16:11;25.50;;;14.55;;
37701;SDS011;23548;51.196;6.838;2023-03-01T06:18:39;25.38;;;13.85;;
37701;SDS011;23548;51.196;6.838;2023-03-01T06:21:06;27.33;;;15.05;;
37701;SDS011;23548;51.196;6.838;2023-03-01T06:23:33;25.05;;;14.00;;
37701;SDS011;23548;51.196;6.838;2023-03-01T06:25:59;30.92;;;16.02;;
37701;SDS011;23548;51.196;6.838;2023-03-01T06:28:25;29.35;;;15.40;;
37701;SDS011;23548;51.196;6.838;2023-03-01T06:30:51;28.65;;;14.98;;
37701;SDS011;23548;51.196;6.838;2023-03-01T06:33:18;28.77;;;15.27;;
37701;SDS011;23548;51.196;6.838;2023-03-01T06:35:49;26.52;;;15.38;;
37701;SDS011;23548;51.196;6.838;2023-03-01T06:38:15;27.35;;;14.07;;
37701;SDS011;23548;51.196;6.838;2023-03-01T06:40:44;27.92;;;15.43;;
37701;SDS011;23548;51.196;6.838;2023-03-01T06:43:10;31.83;;;14.95;;
37701;SDS011;23548;51.196;6.838;2023-03-01T06:45:36;31.13;;;15.50;;
37701;SDS011;23548;51.196;6.838;2023-03-01T06:48:03;27.85;;;14.73;;
37701;SDS011;23548;51.196;6.838;2023-03-01T06:50:31;28.83;;;14.32;;
37701;SDS011;23548;51.196;6.838;2023-03-01T06:52:57;26.35;;;14.88;;
37701;SDS011;23548;51.196;6.838;2023-03-01T06:55:23;29.13;;;16.98;;
37701;SDS011;23548;51.196;6.838;2023-03-01T06:57:53;28.95;;;15.65;;
37701;SDS011;23548;51.196;6.838;2023-03-01T07:00:21;27.33;;;14.70;;
37701;SDS011;23548;51.196;6.838;2023-03-01T07:02:47;27.48;;;14.88;;
37701;SDS011;23548;51.196;6.838;2023-03-01T07:05:13;31.02;;;15.02;;
37701;SDS011;23548;51.196;6.838;2023-03-01T07:07:39;30.80;;;15.45;;
37701;SDS011;23548;51.196;6.838;2023-03-01T07:10:05;25.70;;;14.98;;
37701;SDS011;23548;51.196;6.838;2023-03-01T07:12:31;30.45;;;15.27;;
37701;SDS011;23548;51.196;6.838;2023-03-01T07:14:57;29.58;;;14.20;;
37701;SDS011;23548;51.196;6.838;2023-03-01T07:17:23;43.88;;;15.70;;
37701;SDS011;23548;51.196;6.838;2023-03-01T07:19:48;33.40;;;14.65;;
37701;SDS011;23548;51.196;6.838;2023-03-01T07:22:14;28.92;;;13.73;;
37701;SDS011;23548;51.196;6.838;2023-03-01T07:24:41;26.60;;;14.73;;
37701;SDS011;23548;51.196;6.838;2023-03-01T07:27:06;26.35;;;14.48;;
37701;SDS011;23548;51.196;6.838;2023-03-01T07:29:32;25.48;;;14.15;;
37701;SDS011;23548;51.196;6.838;2023-03-01T07:31:58;27.63;;;14.20;;
37701;SDS011;23548;51.196;6.838;2023-03-01T07:34:24;25.75;;;14.43;;
37701;SDS011;23548;51.196;6.838;2023-03-01T07:36:50;28.15;;;14.82;;
37701;SDS011;23548;51.196;6.838;2023-03-01T07:39:16;27.52;;;15.13;;
37701;SDS011;23548;51.196;6.838;2023-03-01T07:41:42;28.83;;;15.13;;
37701;SDS011;23548;51.196;6.838;2023-03-01T07:44:07;26.08;;;14.45;;
37701;SDS011;23548;51.196;6.838;2023-03-01T07:46:34;28.65;;;15.13;;
37701;SDS011;23548;51.196;6.838;2023-03-01T07:49:00;40.00;;;15.23;;
37701;SDS011;23548;51.196;6.838;2023-03-01T07:51:30;29.15;;;14.13;;
37701;SDS011;23548;51.196;6.838;2023-03-01T07:53:56;29.73;;;15.27;;
37701;SDS011;23548;51.196;6.838;2023-03-01T07:56:21;25.77;;;13.48;;
37701;SDS011;23548;51.196;6.838;2023-03-01T07:58:47;34.17;;;13.80;;
37701;SDS011;23548;51.196;6.838;2023-03-01T08:01:14;25.25;;;13.57;;
37701;SDS011;23548;51.196;6.838;2023-03-01T08:03:42;37.80;;;16.40;;
37701;SDS011;23548;51.196;6.838;2023-03-01T08:06:09;28.23;;;14.35;;
37701;SDS011;23548;51.196;6.838;2023-03-01T08:08:35;28.40;;;15.38;;
37701;SDS011;23548;51.196;6.838;2023-03-01T08:11:02;29.75;;;14.68;;
37701;SDS011;23548;51.196;6.838;2023-03-01T08:13:29;31.98;;;15.77;;
37701;SDS011;23548;51.196;6.838;2023-03-01T08:16:05;24.83;;;15.20;;
37701;SDS011;23548;51.196;6.838;2023-03-01T08:18:33;24.85;;;14.30;;
37701;SDS011;23548;51.196;6.838;2023-03-01T08:21:03;40.30;;;15.13;;
37701;SDS011;23548;51.196;6.838;2023-03-01T08:23:30;28.05;;;15.45;;
37701;SDS011;23548;51.196;6.838;2023-03-01T08:26:06;32.92;;;15.82;;
37701;SDS011;23548;51.196;6.838;2023-03-01T08:28:32;29.08;;;14.90;;
37701;SDS011;23548;51.196;6.838;2023-03-01T08:30:58;28.75;;;14.23;;
37701;SDS011;23548;51.196;6.838;2023-03-01T08:33:24;27.60;;;14.88;;
37701;SDS011;23548;51.196;6.838;2023-03-01T08:35:50;22.83;;;14.63;;
37701;SDS011;23548;51.196;6.838;2023-03-01T08:38:16;32.85;;;15.60;;
37701;SDS011;23548;51.196;6.838;2023-03-01T08:40:41;34.38;;;15.60;;
37701;SDS011;23548;51.196;6.838;2023-03-01T08:43:07;23.52;;;14.45;;
37701;SDS011;23548;51.196;6.838;2023-03-01T08:45:33;30.88;;;15.27;;
37701;SDS011;23548;51.196;6.838;2023-03-01T08:47:58;31.20;;;15.82;;
37701;SDS011;23548;51.196;6.838;2023-03-01T08:50:24;28.40;;;14.88;;
37701;SDS011;23548;51.196;6.838;2023-03-01T08:52:50;34.13;;;15.10;;
37701;SDS011;23548;51.196;6.838;2023-03-01T08:55:16;29.45;;;14.88;;
37701;SDS011;23548;51.196;6.838;2023-03-01T08:57:42;22.63;;;14.45;;
37701;SDS011;23548;51.196;6.838;2023-03-01T09:00:09;27.42;;;15.52;;
37701;SDS011;23548;51.196;6.838;2023-03-01T09:02:36;24.17;;;14.18;;
37701;SDS011;23548;51.196;6.838;2023-03-01T09:05:02;30.73;;;14.93;;
37701;SDS011;23548;51.196;6.838;2023-03-01T09:07:28;28.15;;;15.60;;
37701;SDS011;23548;51.196;6.838;2023-03-01T09:09:54;27.63;;;14.13;;
37701;SDS011;23548;51.196;6.838;2023-03-01T09:12:20;34.90;;;15.30;;
37701;SDS011;23548;51.196;6.838;2023-03-01T09:14:46;35.67;;;15.30;;
37701;SDS011;23548;51.196;6.838;2023-03-01T09:17:11;30.13;;;14.32;;
37701;SDS011;23548;51.196;6.838;2023-03-01T09:19:37;34.50;;;14.85;;
37701;SDS011;23548;51.196;6.838;2023-03-01T09:22:03;61.30;;;14.40;;
37701;SDS011;23548;51.196;6.838;2023-03-01T09:24:30;50.05;;;14.00;;
37701;SDS011;23548;51.196;6.838;2023-03-01T09:26:56;51.70;;;16.02;;
37701;SDS011;23548;51.196;6.838;2023-03-01T09:29:22;25.35;;;13.65;;
37701;SDS011;23548;51.196;6.838;2023-03-01T09:31:48;81.20;;;15.52;;
37701;SDS011;23548;51.196;6.838;2023-03-01T09:34:13;19.48;;;11.82;;
37701;SDS011;23548;51.196;6.838;2023-03-01T09:36:41;23.38;;;12.57;;
37701;SDS011;23548;51.196;6.838;2023-03-01T09:39:07;20.52;;;11.93;;
37701;SDS011;23548;51.196;6.838;2023-03-01T09:47:03;28.73;;;13.82;;
37701;SDS011;23548;51.196;6.838;2023-03-01T09:49:31;24.02;;;13.63;;
37701;SDS011;23548;51.196;6.838;2023-03-01T09:54:49;26.77;;;13.27;;
37701;SDS011;23548;51.196;6.838;2023-03-01T09:57:30;22.75;;;13.13;;
37701;SDS011;23548;51.196;6.838;2023-03-01T10:05:41;21.92;;;13.15;;
37701;SDS011;23548;51.196;6.838;2023-03-01T10:11:20;20.08;;;11.60;;
37701;SDS011;23548;51.196;6.838;2023-03-01T10:14:01;97.10;;;15.45;;
37701;SDS011;23548;51.196;6.838;2023-03-01T10:19:11;23.63;;;13.45;;
37701;SDS011;23548;51.196;6.838;2023-03-01T10:21:43;21.48;;;12.65;;
37701;SDS011;23548;51.196;6.838;2023-03-01T10:24:14;23.15;;;12.55;;
37701;SDS011;23548;51.196;6.838;2023-03-01T10:29:13;26.50;;;12.65;;
37701;SDS011;23548;51.196;6.838;2023-03-01T10:31:42;21.67;;;12.20;;
37701;SDS011;23548;51.196;6.838;2023-03-01T10:34:32;19.10;;;11.75;;
37701;SDS011;23548;51.196;6.838;2023-03-01T10:37:08;20.42;;;12.00;;
37701;SDS011;23548;51.196;6.838;2023-03-01T10:39:37;19.50;;;11.93;;
37701;SDS011;23548;51.196;6.838;2023-03-01T10:42:45;20.52;;;12.35;;
37701;SDS011;23548;51.196;6.838;2023-03-01T10:48:12;21.27;;;12.13;;
37701;SDS011;23548;51.196;6.838;2023-03-01T10:50:41;20.00;;;13.38;;
37701;SDS011;23548;51.196;6.838;2023-03-01T10:55:59;21.80;;;12.25;;
37701;SDS011;23548;51.196;6.838;2023-03-01T10:58:26;21.92;;;12.35;;
37701;SDS011;23548;51.196;6.838;2023-03-01T11:00:54;19.20;;;12.32;;
37701;SDS011;23548;51.196;6.838;2023-03-01T11:03:25;22.13;;;12.63;;
37701;SDS011;23548;51.196;6.838;2023-03-01T11:05:57;22.38;;;13.73;;
37701;SDS011;23548;51.196;6.838;2023-03-01T11:08:46;29.52;;;13.23;;
37701;SDS011;23548;51.196;6.838;2023-03-01T11:14:06;23.08;;;14.27;;
37701;SDS011;23548;51.196;6.838;2023-03-01T11:16:35;27.88;;;13.75;;
37701;SDS011;23548;51.196;6.838;2023-03-01T11:24:09;23.00;;;12.90;;
37701;SDS011;23548;51.196;6.838;2023-03-01T11:26:39;42.40;;;14.18;;
37701;SDS011;23548;51.196;6.838;2023-03-01T11:29:12;23.08;;;13.45;;
37701;SDS011;23548;51.196;6.838;2023-03-01T11:31:46;20.30;;;13.30;;
37701;SDS011;23548;51.196;6.838;2023-03-01T11:34:16;22.58;;;13.05;;
37701;SDS011;23548;51.196;6.838;2023-03-01T11:36:54;27.58;;;14.15;;
37701;SDS011;23548;51.196;6.838;2023-03-01T11:39:36;25.92;;;13.73;;
37701;SDS011;23548;51.196;6.838;2023-03-01T11:42:18;24.08;;;12.80;;
37701;SDS011;23548;51.196;6.838;2023-03-01T11:44:51;24.95;;;14.38;;
37701;SDS011;23548;51.196;6.838;2023-03-01T12:06:33;29.13;;;12.98;;
37701;SDS011;23548;51.196;6.838;2023-03-01T12:14:59;19.75;;;12.38;;
37701;SDS011;23548;51.196;6.838;2023-03-01T12:51:26;17.30;;;11.23;;
37701;SDS011;23548;51.196;6.838;2023-03-01T12:53:55;27.40;;;11.10;;
37701;SDS011;23548;51.196;6.838;2023-03-01T12:56:24;20.17;;;10.68;;
37701;SDS011;23548;51.196;6.838;2023-03-01T13:04:08;20.85;;;10.68;;
37701;SDS011;23548;51.196;6.838;2023-03-01T13:09:24;19.00;;;10.90;;
37701;SDS011;23548;51.196;6.838;2023-03-01T13:11:53;21.23;;;11.10;;
37701;SDS011;23548;51.196;6.838;2023-03-01T13:16:48;17.40;;;10.70;;
37701;SDS011;23548;51.196;6.838;2023-03-01T13:19:17;24.98;;;10.95;;
37701;SDS011;23548;51.196;6.838;2023-03-01T13:21:43;15.95;;;9.88;;
37701;SDS011;23548;51.196;6.838;2023-03-01T13:24:26;19.45;;;10.38;;
37701;SDS011;23548;51.196;6.838;2023-03-01T13:32:19;14.95;;;9.50;;
37701;SDS011;23548;51.196;6.838;2023-03-01T13:34:50;16.90;;;10.75;;
37701;SDS011;23548;51.196;6.838;2023-03-01T13:37:36;17.60;;;10.48;;
37701;SDS011;23548;51.196;6.838;2023-03-01T13:42:52;20.70;;;9.48;;
37701;SDS011;23548;51.196;6.838;2023-03-01T13:45:33;16.23;;;10.40;;
37701;SDS011;23548;51.196;6.838;2023-03-01T13:48:25;14.75;;;10.50;;
37701;SDS011;23548;51.196;6.838;2023-03-01T13:50:53;29.65;;;10.93;;
37701;SDS011;23548;51.196;6.838;2023-03-01T13:53:24;17.42;;;10.90;;
37701;SDS011;23548;51.196;6.838;2023-03-01T13:55:56;17.60;;;10.63;;
37701;SDS011;23548;51.196;6.838;2023-03-01T14:00:57;94.00;;;13.20;;
37701;SDS011;23548;51.196;6.838;2023-03-01T14:03:25;20.48;;;10.63;;
37701;SDS011;23548;51.196;6.838;2023-03-01T14:06:14;81.13;;;13.57;;
37701;SDS011;23548;51.196;6.838;2023-03-01T14:08:43;35.17;;;11.32;;
37701;SDS011;23548;51.196;6.838;2023-03-01T14:16:56;34.35;;;11.45;;
37701;SDS011;23548;51.196;6.838;2023-03-01T14:19:46;25.98;;;10.27;;
37701;SDS011;23548;51.196;6.838;2023-03-01T14:22:23;32.70;;;11.65;;
37701;SDS011;23548;51.196;6.838;2023-03-01T14:24:57;21.33;;;11.10;;
37701;SDS011;23548;51.196;6.838;2023-03-01T14:27:38;20.35;;;9.98;;
37701;SDS011;23548;51.196;6.838;2023-03-01T14:30:21;14.90;;;9.80;;
37701;SDS011;23548;51.196;6.838;2023-03-01T14:33:17;15.25;;;9.63;;
37701;SDS011;23548;51.196;6.838;2023-03-01T14:35:53;23.13;;;9.80;;
37701;SDS011;23548;51.196;6.838;2023-03-01T14:38:22;16.15;;;9.68;;
37701;SDS011;23548;51.196;6.838;2023-03-01T14:40:54;21.45;;;10.55;;
37701;SDS011;23548;51.196;6.838;2023-03-01T14:43:23;20.23;;;10.32;;
37701;SDS011;23548;51.196;6.838;2023-03-01T14:45:52;16.88;;;9.68;;
37701;SDS011;23548;51.196;6.838;2023-03-01T14:48:18;18.60;;;10.88;;
37701;SDS011;23548;51.196;6.838;2023-03-01T14:50:44;15.02;;;9.18;;
37701;SDS011;23548;51.196;6.838;2023-03-01T14:53:18;15.23;;;9.30;;
37701;SDS011;23548;51.196;6.838;2023-03-01T14:55:53;15.35;;;10.15;;
37701;SDS011;23548;51.196;6.838;2023-03-01T14:58:24;14.77;;;9.52;;
37701;SDS011;23548;51.196;6.838;2023-03-01T15:00:55;14.55;;;9.70;;
37701;SDS011;23548;51.196;6.838;2023-03-01T15:05:51;13.73;;;9.73;;
37701;SDS011;23548;51.196;6.838;2023-03-01T15:08:19;14.30;;;9.65;;
37701;SDS011;23548;51.196;6.838;2023-03-01T15:10:58;15.65;;;10.05;;
37701;SDS011;23548;51.196;6.838;2023-03-01T15:13:29;14.55;;;9.23;;
37701;SDS011;23548;51.196;6.838;2023-03-01T15:21:32;17.02;;;9.48;;
37701;SDS011;23548;51.196;6.838;2023-03-01T15:29:23;15.70;;;9.25;;
37701;SDS011;23548;51.196;6.838;2023-03-01T15:32:05;15.73;;;9.48;;
37701;SDS011;23548;51.196;6.838;2023-03-01T15:34:50;13.77;;;8.80;;
37701;SDS011;23548;51.196;6.838;2023-03-01T15:40:31;17.20;;;8.82;;
37701;SDS011;23548;51.196;6.838;2023-03-01T15:43:01;13.93;;;9.07;;
37701;SDS011;23548;51.196;6.838;2023-03-01T15:45:31;15.50;;;9.55;;
37701;SDS011;23548;51.196;6.838;2023-03-01T15:48:03;14.35;;;8.93;;
37701;SDS011;23548;51.196;6.838;2023-03-01T15:50:38;15.40;;;9.45;;
37701;SDS011;23548;51.196;6.838;2023-03-01T15:53:06;15.05;;;8.50;;
37701;SDS011;23548;51.196;6.838;2023-03-01T15:55:36;15.60;;;9.18;;
37701;SDS011;23548;51.196;6.838;2023-03-01T15:58:03;14.80;;;9.23;;
37701;SDS011;23548;51.196;6.838;2023-03-01T16:00:40;14.43;;;8.80;;
37701;SDS011;23548;51.196;6.838;2023-03-01T16:03:07;15.35;;;8.35;;
37701;SDS011;23548;51.196;6.838;2023-03-01T16:05:37;14.00;;;8.10;;
37701;SDS011;23548;51.196;6.838;2023-03-01T16:08:04;13.77;;;8.55;;
37701;SDS011;23548;51.196;6.838;2023-03-01T16:10:31;14.15;;;8.52;;
37701;SDS011;23548;51.196;6.838;2023-03-01T16:12:58;13.60;;;8.15;;
37701;SDS011;23548;51.196;6.838;2023-03-01T16:15:29;28.00;;;16.75;;
37701;SDS011;23548;51.196;6.838;2023-03-01T16:17:56;16.65;;;8.60;;
37701;SDS011;23548;51.196;6.838;2023-03-01T16:20:26;13.60;;;8.15;;
37701;SDS011;23548;51.196;6.838;2023-03-01T16:22:54;14.25;;;8.30;;
37701;SDS011;23548;51.196;6.838;2023-03-01T16:25:22;15.55;;;8.75;;
37701;SDS011;23548;51.196;6.838;2023-03-01T16:27:49;14.45;;;8.60;;
37701;SDS011;23548;51.196;6.838;2023-03-01T16:30:17;15.50;;;9.32;;
37701;SDS011;23548;51.196;6.838;2023-03-01T16:32:45;14.68;;;9.45;;
37701;SDS011;23548;51.196;6.838;2023-03-01T16:35:14;16.45;;;9.02;;
37701;SDS011;23548;51.196;6.838;2023-03-01T16:37:41;16.88;;;8.00;;
37701;SDS011;23548;51.196;6.838;2023-03-01T16:40:15;14.02;;;8.25;;
37701;SDS011;23548;51.196;6.838;2023-03-01T16:42:44;14.80;;;8.80;;
37701;SDS011;23548;51.196;6.838;2023-03-01T16:45:10;13.48;;;8.10;;
37701;SDS011;23548;51.196;6.838;2023-03-01T16:47:36;15.55;;;8.13;;
37701;SDS011;23548;51.196;6.838;2023-03-01T16:50:02;14.93;;;8.13;;
37701;SDS011;23548;51.196;6.838;2023-03-01T16:52:27;13.48;;;8.32;;
37701;SDS011;23548;51.196;6.838;2023-03-01T16:54:53;16.10;;;7.82;;
37701;SDS011;23548;51.196;6.838;2023-03-01T16:57:19;15.50;;;8.18;;
37701;SDS011;23548;51.196;6.838;2023-03-01T16:59:45;15.15;;;8.32;;
37701;SDS011;23548;51.196;6.838;2023-03-01T17:02:12;12.77;;;7.93;;
37701;SDS011;23548;51.196;6.838;2023-03-01T17:04:39;16.95;;;8.50;;